In Rescue
 
Open Full Screen Window  High Contrast Mode
Wind Gusting 00 knots
12
March 29, 2020 5:00 PM PDT
Weather Information
Wind Direction
  260 °
Wind Speed
  12 kt (14 mph)
Wind Gust
  00 kt (0 mph)
Altimeter
30.12 in
Visibility
10 SM
Temperature
16° C
61° F
Dewpoint
09° C
48° F
Humidity
63%
1hr Rain Fall
00.00 in.
24hr Rain Fall
00.02 in.
Sky Condition
Clear
VFR

METAR KCVH 300000Z AUTO 26012KT 10SM CLR 16/09 A3012 RMK A01

FAA Disclaimer: The data displayed is for advisory purposes only and is not to be used for flight planning or operations.